sensor_id;sensor_type;location;lat;lon;timestamp;P1;durP1;ratioP1;P2;durP2;ratioP2
51949;SDS011;37974;53.218;6.640;2022-08-21T00:03:19;7.55;;;2.42;;
51949;SDS011;37974;53.218;6.640;2022-08-21T00:05:59;6.15;;;2.38;;
51949;SDS011;37974;53.218;6.640;2022-08-21T00:09:18;8.73;;;2.70;;
51949;SDS011;37974;53.218;6.640;2022-08-21T00:11:21;8.90;;;2.70;;
51949;SDS011;37974;53.218;6.640;2022-08-21T00:14:10;10.23;;;2.92;;
51949;SDS011;37974;53.218;6.640;2022-08-21T00:16:53;9.38;;;2.67;;
51949;SDS011;37974;53.218;6.640;2022-08-21T00:19:53;7.68;;;2.83;;
51949;SDS011;37974;53.218;6.640;2022-08-21T00:23:06;6.65;;;1.98;;
51949;SDS011;37974;53.218;6.640;2022-08-21T00:25:59;7.55;;;2.10;;
51949;SDS011;37974;53.218;6.640;2022-08-21T00:28:34;5.13;;;2.20;;
51949;SDS011;37974;53.218;6.640;2022-08-21T00:32:01;7.45;;;3.00;;
51949;SDS011;37974;53.218;6.640;2022-08-21T00:35:01;11.65;;;3.13;;
51949;SDS011;37974;53.218;6.640;2022-08-21T00:37:38;8.27;;;2.67;;
51949;SDS011;37974;53.218;6.640;2022-08-21T00:40:35;4.97;;;1.77;;
51949;SDS011;37974;53.218;6.640;2022-08-21T00:43:44;6.07;;;2.53;;
51949;SDS011;37974;53.218;6.640;2022-08-21T00:46:37;10.73;;;2.95;;
51949;SDS011;37974;53.218;6.640;2022-08-21T00:49:36;6.30;;;2.65;;
51949;SDS011;37974;53.218;6.640;2022-08-21T00:52:36;6.18;;;2.47;;
51949;SDS011;37974;53.218;6.640;2022-08-21T00:55:51;7.10;;;2.70;;
51949;SDS011;37974;53.218;6.640;2022-08-21T00:58:34;10.13;;;2.75;;
51949;SDS011;37974;53.218;6.640;2022-08-21T01:01:23;9.25;;;2.88;;
51949;SDS011;37974;53.218;6.640;2022-08-21T01:04:43;12.00;;;2.70;;
51949;SDS011;37974;53.218;6.640;2022-08-21T01:07:45;6.82;;;2.72;;
51949;SDS011;37974;53.218;6.640;2022-08-21T01:10:38;7.65;;;2.90;;
51949;SDS011;37974;53.218;6.640;2022-08-21T01:13:10;10.27;;;3.35;;
51949;SDS011;37974;53.218;6.640;2022-08-21T01:16:08;8.05;;;2.75;;
51949;SDS011;37974;53.218;6.640;2022-08-21T01:19:00;7.00;;;2.50;;
51949;SDS011;37974;53.218;6.640;2022-08-21T01:21:29;7.38;;;2.95;;
51949;SDS011;37974;53.218;6.640;2022-08-21T01:24:43;8.57;;;2.85;;
51949;SDS011;37974;53.218;6.640;2022-08-21T01:27:21;6.05;;;2.55;;
51949;SDS011;37974;53.218;6.640;2022-08-21T01:30:03;8.10;;;2.70;;
51949;SDS011;37974;53.218;6.640;2022-08-21T01:33:09;8.05;;;3.45;;
51949;SDS011;37974;53.218;6.640;2022-08-21T01:35:49;8.40;;;2.70;;
51949;SDS011;37974;53.218;6.640;2022-08-21T01:38:43;9.75;;;3.50;;
51949;SDS011;37974;53.218;6.640;2022-08-21T01:41:45;9.13;;;2.90;;
51949;SDS011;37974;53.218;6.640;2022-08-21T01:44:14;10.20;;;3.35;;
51949;SDS011;37974;53.218;6.640;2022-08-21T01:47:29;14.13;;;4.18;;
51949;SDS011;37974;53.218;6.640;2022-08-21T01:50:19;12.73;;;4.00;;
51949;SDS011;37974;53.218;6.640;2022-08-21T01:55:55;15.02;;;3.70;;
51949;SDS011;37974;53.218;6.640;2022-08-21T01:58:38;17.10;;;3.80;;
51949;SDS011;37974;53.218;6.640;2022-08-21T02:01:13;11.13;;;3.60;;
51949;SDS011;37974;53.218;6.640;2022-08-21T02:04:14;9.23;;;3.17;;
51949;SDS011;37974;53.218;6.640;2022-08-21T02:06:50;9.25;;;3.60;;
51949;SDS011;37974;53.218;6.640;2022-08-21T02:09:53;13.23;;;3.67;;
51949;SDS011;37974;53.218;6.640;2022-08-21T02:12:28;9.90;;;3.55;;
51949;SDS011;37974;53.218;6.640;2022-08-21T02:15:17;11.55;;;3.88;;
51949;SDS011;37974;53.218;6.640;2022-08-21T02:18:05;9.25;;;3.75;;
51949;SDS011;37974;53.218;6.640;2022-08-21T02:20:55;7.80;;;3.53;;
51949;SDS011;37974;53.218;6.640;2022-08-21T02:23:57;11.30;;;3.40;;
51949;SDS011;37974;53.218;6.640;2022-08-21T02:26:33;9.70;;;4.03;;
51949;SDS011;37974;53.218;6.640;2022-08-21T02:29:33;13.55;;;3.55;;
51949;SDS011;37974;53.218;6.640;2022-08-21T02:32:02;13.45;;;3.80;;
51949;SDS011;37974;53.218;6.640;2022-08-21T02:35:06;12.93;;;4.05;;
51949;SDS011;37974;53.218;6.640;2022-08-21T02:38:04;8.98;;;3.70;;
51949;SDS011;37974;53.218;6.640;2022-08-21T02:40:45;12.40;;;3.67;;
51949;SDS011;37974;53.218;6.640;2022-08-21T02:44:04;7.70;;;3.50;;
51949;SDS011;37974;53.218;6.640;2022-08-21T02:48:32;9.65;;;3.70;;
51949;SDS011;37974;53.218;6.640;2022-08-21T02:51:22;12.63;;;4.60;;
51949;SDS011;37974;53.218;6.640;2022-08-21T02:54:23;11.63;;;3.97;;
51949;SDS011;37974;53.218;6.640;2022-08-21T02:57:00;8.13;;;3.20;;
51949;SDS011;37974;53.218;6.640;2022-08-21T03:00:20;9.95;;;3.58;;
51949;SDS011;37974;53.218;6.640;2022-08-21T03:03:04;13.02;;;4.53;;
51949;SDS011;37974;53.218;6.640;2022-08-21T03:05:40;13.40;;;5.45;;
51949;SDS011;37974;53.218;6.640;2022-08-21T03:08:40;16.48;;;5.57;;
51949;SDS011;37974;53.218;6.640;2022-08-21T03:12:00;12.75;;;5.30;;
51949;SDS011;37974;53.218;6.640;2022-08-21T03:14:43;18.95;;;6.45;;
51949;SDS011;37974;53.218;6.640;2022-08-21T03:21:27;13.93;;;5.63;;
51949;SDS011;37974;53.218;6.640;2022-08-21T03:24:08;9.55;;;6.32;;
51949;SDS011;37974;53.218;6.640;2022-08-21T03:27:11;15.02;;;6.25;;
51949;SDS011;37974;53.218;6.640;2022-08-21T03:33:21;10.60;;;5.05;;
51949;SDS011;37974;53.218;6.640;2022-08-21T03:36:26;9.82;;;4.97;;
51949;SDS011;37974;53.218;6.640;2022-08-21T03:39:29;12.15;;;5.57;;
51949;SDS011;37974;53.218;6.640;2022-08-21T03:42:46;15.23;;;5.85;;
51949;SDS011;37974;53.218;6.640;2022-08-21T03:45:24;11.40;;;5.93;;
51949;SDS011;37974;53.218;6.640;2022-08-21T03:58:03;12.55;;;6.53;;
51949;SDS011;37974;53.218;6.640;2022-08-21T04:01:30;17.10;;;6.72;;
51949;SDS011;37974;53.218;6.640;2022-08-21T04:03:55;14.00;;;6.47;;
51949;SDS011;37974;53.218;6.640;2022-08-21T04:06:56;17.85;;;6.72;;
51949;SDS011;37974;53.218;6.640;2022-08-21T04:09:31;14.60;;;6.47;;
51949;SDS011;37974;53.218;6.640;2022-08-21T04:12:13;14.85;;;6.53;;
51949;SDS011;37974;53.218;6.640;2022-08-21T04:15:43;13.27;;;6.07;;
51949;SDS011;37974;53.218;6.640;2022-08-21T04:18:18;13.88;;;6.60;;
51949;SDS011;37974;53.218;6.640;2022-08-21T04:21:14;17.90;;;7.28;;
51949;SDS011;37974;53.218;6.640;2022-08-21T04:24:05;14.32;;;6.43;;
51949;SDS011;37974;53.218;6.640;2022-08-21T04:26:50;16.85;;;5.85;;
51949;SDS011;37974;53.218;6.640;2022-08-21T04:29:42;11.23;;;6.38;;
51949;SDS011;37974;53.218;6.640;2022-08-21T04:32:29;12.30;;;6.50;;
51949;SDS011;37974;53.218;6.640;2022-08-21T04:37:57;12.98;;;6.30;;
51949;SDS011;37974;53.218;6.640;2022-08-21T04:40:35;14.70;;;5.97;;
51949;SDS011;37974;53.218;6.640;2022-08-21T04:43:09;15.18;;;6.40;;
51949;SDS011;37974;53.218;6.640;2022-08-21T04:46:02;12.05;;;6.28;;
51949;SDS011;37974;53.218;6.640;2022-08-21T04:49:19;15.00;;;7.30;;
51949;SDS011;37974;53.218;6.640;2022-08-21T04:51:44;13.30;;;6.13;;
51949;SDS011;37974;53.218;6.640;2022-08-21T04:54:36;14.82;;;6.28;;
51949;SDS011;37974;53.218;6.640;2022-08-21T04:57:25;11.70;;;5.72;;
51949;SDS011;37974;53.218;6.640;2022-08-21T04:59:51;15.95;;;6.03;;
51949;SDS011;37974;53.218;6.640;2022-08-21T05:02:17;16.83;;;6.13;;
51949;SDS011;37974;53.218;6.640;2022-08-21T05:04:46;13.52;;;6.13;;
51949;SDS011;37974;53.218;6.640;2022-08-21T05:07:19;12.27;;;6.00;;
51949;SDS011;37974;53.218;6.640;2022-08-21T05:09:50;14.18;;;5.78;;
51949;SDS011;37974;53.218;6.640;2022-08-21T05:12:16;14.45;;;5.88;;
51949;SDS011;37974;53.218;6.640;2022-08-21T05:14:43;12.70;;;5.20;;
51949;SDS011;37974;53.218;6.640;2022-08-21T05:17:08;27.08;;;6.93;;
51949;SDS011;37974;53.218;6.640;2022-08-21T05:19:34;16.98;;;5.70;;
51949;SDS011;37974;53.218;6.640;2022-08-21T05:22:00;12.52;;;5.38;;
51949;SDS011;37974;53.218;6.640;2022-08-21T05:24:27;15.93;;;5.57;;
51949;SDS011;37974;53.218;6.640;2022-08-21T05:26:53;14.25;;;5.15;;
51949;SDS011;37974;53.218;6.640;2022-08-21T05:29:19;17.70;;;5.45;;
51949;SDS011;37974;53.218;6.640;2022-08-21T05:31:45;10.43;;;5.13;;
51949;SDS011;37974;53.218;6.640;2022-08-21T05:34:14;14.35;;;5.00;;
51949;SDS011;37974;53.218;6.640;2022-08-21T05:36:43;10.88;;;4.93;;
51949;SDS011;37974;53.218;6.640;2022-08-21T05:39:09;17.33;;;5.57;;
51949;SDS011;37974;53.218;6.640;2022-08-21T05:41:35;10.65;;;5.07;;
51949;SDS011;37974;53.218;6.640;2022-08-21T05:44:01;13.98;;;4.85;;
51949;SDS011;37974;53.218;6.640;2022-08-21T05:46:27;14.55;;;5.32;;
51949;SDS011;37974;53.218;6.640;2022-08-21T05:48:53;13.10;;;5.13;;
51949;SDS011;37974;53.218;6.640;2022-08-21T05:51:18;12.60;;;4.70;;
51949;SDS011;37974;53.218;6.640;2022-08-21T05:53:44;16.48;;;5.32;;
51949;SDS011;37974;53.218;6.640;2022-08-21T05:56:11;13.90;;;5.47;;
51949;SDS011;37974;53.218;6.640;2022-08-21T05:58:40;12.23;;;4.95;;
51949;SDS011;37974;53.218;6.640;2022-08-21T06:01:09;14.90;;;4.95;;
51949;SDS011;37974;53.218;6.640;2022-08-21T06:03:36;16.63;;;5.35;;
51949;SDS011;37974;53.218;6.640;2022-08-21T06:06:10;11.45;;;4.70;;
51949;SDS011;37974;53.218;6.640;2022-08-21T06:08:40;12.70;;;5.00;;
51949;SDS011;37974;53.218;6.640;2022-08-21T06:11:07;15.55;;;5.45;;
51949;SDS011;37974;53.218;6.640;2022-08-21T06:13:34;15.85;;;4.80;;
51949;SDS011;37974;53.218;6.640;2022-08-21T06:16:03;14.35;;;4.53;;
51949;SDS011;37974;53.218;6.640;2022-08-21T06:18:31;16.70;;;4.40;;
51949;SDS011;37974;53.218;6.640;2022-08-21T06:20:57;14.10;;;4.72;;
51949;SDS011;37974;53.218;6.640;2022-08-21T06:23:23;13.05;;;4.82;;
51949;SDS011;37974;53.218;6.640;2022-08-21T06:25:49;14.00;;;4.45;;
51949;SDS011;37974;53.218;6.640;2022-08-21T06:28:15;15.70;;;4.45;;
51949;SDS011;37974;53.218;6.640;2022-08-21T06:30:52;14.77;;;3.97;;
51949;SDS011;37974;53.218;6.640;2022-08-21T06:33:18;12.68;;;4.50;;
51949;SDS011;37974;53.218;6.640;2022-08-21T06:35:44;13.48;;;3.90;;
51949;SDS011;37974;53.218;6.640;2022-08-21T06:38:10;11.05;;;3.78;;
51949;SDS011;37974;53.218;6.640;2022-08-21T06:40:36;11.95;;;3.97;;
51949;SDS011;37974;53.218;6.640;2022-08-21T06:43:07;13.38;;;4.30;;
51949;SDS011;37974;53.218;6.640;2022-08-21T06:45:37;16.45;;;3.90;;
51949;SDS011;37974;53.218;6.640;2022-08-21T06:48:03;18.67;;;4.47;;
51949;SDS011;37974;53.218;6.640;2022-08-21T06:50:29;11.55;;;3.70;;
51949;SDS011;37974;53.218;6.640;2022-08-21T06:53:01;17.02;;;4.00;;
51949;SDS011;37974;53.218;6.640;2022-08-21T06:55:30;18.73;;;3.28;;
51949;SDS011;37974;53.218;6.640;2022-08-21T06:57:57;14.38;;;3.45;;
51949;SDS011;37974;53.218;6.640;2022-08-21T07:00:23;8.63;;;2.90;;
51949;SDS011;37974;53.218;6.640;2022-08-21T07:02:49;10.98;;;3.03;;
51949;SDS011;37974;53.218;6.640;2022-08-21T07:05:14;16.08;;;3.38;;
51949;SDS011;37974;53.218;6.640;2022-08-21T07:07:47;13.40;;;3.22;;
51949;SDS011;37974;53.218;6.640;2022-08-21T07:10:15;11.32;;;2.67;;
51949;SDS011;37974;53.218;6.640;2022-08-21T07:12:41;13.57;;;3.08;;
51949;SDS011;37974;53.218;6.640;2022-08-21T07:15:07;10.00;;;2.83;;
51949;SDS011;37974;53.218;6.640;2022-08-21T07:17:34;9.38;;;2.90;;
51949;SDS011;37974;53.218;6.640;2022-08-21T07:20:06;9.48;;;2.53;;
51949;SDS011;37974;53.218;6.640;2022-08-21T07:22:35;10.88;;;2.60;;
51949;SDS011;37974;53.218;6.640;2022-08-21T07:25:04;13.32;;;2.78;;
51949;SDS011;37974;53.218;6.640;2022-08-21T07:27:48;15.70;;;3.05;;
51949;SDS011;37974;53.218;6.640;2022-08-21T07:30:14;18.48;;;2.42;;
51949;SDS011;37974;53.218;6.640;2022-08-21T07:32:40;15.88;;;3.42;;
51949;SDS011;37974;53.218;6.640;2022-08-21T07:35:06;13.27;;;2.25;;
51949;SDS011;37974;53.218;6.640;2022-08-21T07:37:32;12.07;;;2.15;;
51949;SDS011;37974;53.218;6.640;2022-08-21T07:40:00;15.63;;;2.58;;
51949;SDS011;37974;53.218;6.640;2022-08-21T07:42:26;14.52;;;2.35;;
51949;SDS011;37974;53.218;6.640;2022-08-21T07:44:52;18.30;;;2.33;;
51949;SDS011;37974;53.218;6.640;2022-08-21T07:47:19;16.95;;;2.03;;
51949;SDS011;37974;53.218;6.640;2022-08-21T07:49:45;15.35;;;2.15;;
51949;SDS011;37974;53.218;6.640;2022-08-21T07:52:11;26.13;;;2.05;;
51949;SDS011;37974;53.218;6.640;2022-08-21T07:54:37;18.55;;;1.85;;
51949;SDS011;37974;53.218;6.640;2022-08-21T07:57:06;13.95;;;2.35;;
51949;SDS011;37974;53.218;6.640;2022-08-21T07:59:31;9.40;;;1.70;;
51949;SDS011;37974;53.218;6.640;2022-08-21T08:01:57;12.30;;;2.47;;
51949;SDS011;37974;53.218;6.640;2022-08-21T08:04:23;13.88;;;2.92;;
51949;SDS011;37974;53.218;6.640;2022-08-21T08:06:49;10.07;;;1.55;;
51949;SDS011;37974;53.218;6.640;2022-08-21T08:09:15;9.88;;;1.70;;
51949;SDS011;37974;53.218;6.640;2022-08-21T08:11:44;14.15;;;1.98;;
51949;SDS011;37974;53.218;6.640;2022-08-21T08:14:10;10.82;;;1.85;;
51949;SDS011;37974;53.218;6.640;2022-08-21T08:16:36;10.20;;;2.00;;
51949;SDS011;37974;53.218;6.640;2022-08-21T08:19:02;14.77;;;2.08;;
51949;SDS011;37974;53.218;6.640;2022-08-21T08:21:31;10.15;;;1.85;;
51949;SDS011;37974;53.218;6.640;2022-08-21T08:24:01;9.90;;;1.83;;
51949;SDS011;37974;53.218;6.640;2022-08-21T08:26:33;9.65;;;2.25;;
51949;SDS011;37974;53.218;6.640;2022-08-21T08:29:01;12.60;;;1.88;;
51949;SDS011;37974;53.218;6.640;2022-08-21T08:31:27;9.63;;;1.58;;
51949;SDS011;37974;53.218;6.640;2022-08-21T08:33:52;15.55;;;2.30;;
51949;SDS011;37974;53.218;6.640;2022-08-21T08:36:31;13.00;;;2.33;;
51949;SDS011;37974;53.218;6.640;2022-08-21T08:38:59;9.25;;;1.65;;
51949;SDS011;37974;53.218;6.640;2022-08-21T08:41:25;12.32;;;2.13;;
51949;SDS011;37974;53.218;6.640;2022-08-21T08:43:58;8.95;;;1.88;;
51949;SDS011;37974;53.218;6.640;2022-08-21T08:46:36;7.57;;;1.70;;
51949;SDS011;37974;53.218;6.640;2022-08-21T08:49:10;11.05;;;2.20;;
51949;SDS011;37974;53.218;6.640;2022-08-21T08:51:46;7.47;;;2.13;;
51949;SDS011;37974;53.218;6.640;2022-08-21T08:54:45;12.45;;;2.53;;
51949;SDS011;37974;53.218;6.640;2022-08-21T08:57:15;10.88;;;1.73;;
51949;SDS011;37974;53.218;6.640;2022-08-21T08:59:45;8.88;;;2.45;;
51949;SDS011;37974;53.218;6.640;2022-08-21T09:03:02;12.30;;;2.22;;
51949;SDS011;37974;53.218;6.640;2022-08-21T09:05:39;11.10;;;2.08;;
51949;SDS011;37974;53.218;6.640;2022-08-21T09:08:58;16.50;;;3.13;;
51949;SDS011;37974;53.218;6.640;2022-08-21T09:14:56;13.93;;;3.17;;
51949;SDS011;37974;53.218;6.640;2022-08-21T09:17:36;13.88;;;2.53;;
51949;SDS011;37974;53.218;6.640;2022-08-21T09:23:32;11.60;;;2.35;;
51949;SDS011;37974;53.218;6.640;2022-08-21T09:26:47;14.82;;;2.63;;
51949;SDS011;37974;53.218;6.640;2022-08-21T09:29:43;21.88;;;2.78;;
51949;SDS011;37974;53.218;6.640;2022-08-21T09:32:33;13.65;;;2.40;;
51949;SDS011;37974;53.218;6.640;2022-08-21T09:35:23;9.18;;;2.33;;
51949;SDS011;37974;53.218;6.640;2022-08-21T09:40:59;15.65;;;2.78;;
51949;SDS011;37974;53.218;6.640;2022-08-21T09:43:52;14.30;;;2.80;;
51949;SDS011;37974;53.218;6.640;2022-08-21T09:46:23;12.73;;;2.47;;
51949;SDS011;37974;53.218;6.640;2022-08-21T09:48:52;11.80;;;2.17;;
51949;SDS011;37974;53.218;6.640;2022-08-21T09:51:49;20.13;;;2.53;;
51949;SDS011;37974;53.218;6.640;2022-08-21T09:54:19;15.05;;;2.65;;
51949;SDS011;37974;53.218;6.640;2022-08-21T10:00:19;11.13;;;2.00;;
51949;SDS011;37974;53.218;6.640;2022-08-21T10:03:07;12.60;;;2.08;;
51949;SDS011;37974;53.218;6.640;2022-08-21T10:05:37;15.80;;;2.63;;
51949;SDS011;37974;53.218;6.640;2022-08-21T10:08:04;13.50;;;2.70;;
51949;SDS011;37974;53.218;6.640;2022-08-21T10:10:31;12.80;;;2.30;;
51949;SDS011;37974;53.218;6.640;2022-08-21T10:15:47;12.10;;;2.00;;
51949;SDS011;37974;53.218;6.640;2022-08-21T10:21:16;14.98;;;2.20;;
51949;SDS011;37974;53.218;6.640;2022-08-21T10:24:01;11.00;;;1.90;;
51949;SDS011;37974;53.218;6.640;2022-08-21T10:27:01;10.18;;;2.10;;
51949;SDS011;37974;53.218;6.640;2022-08-21T10:29:45;9.90;;;2.00;;
51949;SDS011;37974;53.218;6.640;2022-08-21T10:32:33;9.02;;;2.05;;
51949;SDS011;37974;53.218;6.640;2022-08-21T10:35:12;11.02;;;2.13;;
51949;SDS011;37974;53.218;6.640;2022-08-21T10:37:48;10.95;;;2.50;;
51949;SDS011;37974;53.218;6.640;2022-08-21T10:40:35;7.80;;;1.98;;
51949;SDS011;37974;53.218;6.640;2022-08-21T10:43:38;17.23;;;2.47;;
51949;SDS011;37974;53.218;6.640;2022-08-21T10:54:38;6.43;;;1.48;;
51949;SDS011;37974;53.218;6.640;2022-08-21T10:57:32;14.52;;;2.15;;
51949;SDS011;37974;53.218;6.640;2022-08-21T11:03:51;10.82;;;2.13;;
51949;SDS011;37974;53.218;6.640;2022-08-21T11:08:57;9.50;;;1.50;;
51949;SDS011;37974;53.218;6.640;2022-08-21T11:11:31;8.98;;;1.52;;
51949;SDS011;37974;53.218;6.640;2022-08-21T11:14:03;8.48;;;1.90;;
51949;SDS011;37974;53.218;6.640;2022-08-21T11:19:32;9.85;;;1.85;;
51949;SDS011;37974;53.218;6.640;2022-08-21T11:22:11;11.93;;;1.92;;
51949;SDS011;37974;53.218;6.640;2022-08-21T11:24:42;9.73;;;1.80;;
51949;SDS011;37974;53.218;6.640;2022-08-21T11:27:32;10.20;;;1.98;;
51949;SDS011;37974;53.218;6.640;2022-08-21T11:30:19;7.20;;;1.67;;
51949;SDS011;37974;53.218;6.640;2022-08-21T11:38:15;11.55;;;1.77;;
51949;SDS011;37974;53.218;6.640;2022-08-21T11:46:17;12.00;;;2.22;;
51949;SDS011;37974;53.218;6.640;2022-08-21T11:51:32;14.98;;;2.53;;
51949;SDS011;37974;53.218;6.640;2022-08-21T11:54:05;12.05;;;2.17;;
51949;SDS011;37974;53.218;6.640;2022-08-21T11:56:54;12.60;;;1.85;;
51949;SDS011;37974;53.218;6.640;2022-08-21T11:59:41;8.95;;;2.25;;
51949;SDS011;37974;53.218;6.640;2022-08-21T12:04:44;9.38;;;1.70;;
51949;SDS011;37974;53.218;6.640;2022-08-21T12:07:18;9.75;;;3.10;;
51949;SDS011;37974;53.218;6.640;2022-08-21T12:09:56;8.55;;;1.92;;
51949;SDS011;37974;53.218;6.640;2022-08-21T12:12:25;11.02;;;1.77;;
51949;SDS011;37974;53.218;6.640;2022-08-21T12:15:11;11.38;;;2.13;;
51949;SDS011;37974;53.218;6.640;2022-08-21T12:22:51;10.00;;;2.13;;
51949;SDS011;37974;53.218;6.640;2022-08-21T12:25:20;12.48;;;2.63;;
51949;SDS011;37974;53.218;6.640;2022-08-21T12:27:49;10.68;;;2.05;;
51949;SDS011;37974;53.218;6.640;2022-08-21T12:30:33;14.60;;;2.28;;
51949;SDS011;37974;53.218;6.640;2022-08-21T12:33:04;11.23;;;2.22;;
51949;SDS011;37974;53.218;6.640;2022-08-21T12:35:42;10.20;;;1.95;;
51949;SDS011;37974;53.218;6.640;2022-08-21T12:38:15;10.05;;;1.55;;
51949;SDS011;37974;53.218;6.640;2022-08-21T12:40:53;11.80;;;1.52;;
51949;SDS011;37974;53.218;6.640;2022-08-21T12:43:34;13.88;;;1.60;;
51949;SDS011;37974;53.218;6.640;2022-08-21T12:46:04;9.45;;;1.63;;
51949;SDS011;37974;53.218;6.640;2022-08-21T12:48:35;7.97;;;1.52;;
51949;SDS011;37974;53.218;6.640;2022-08-21T12:51:11;12.98;;;2.00;;
51949;SDS011;37974;53.218;6.640;2022-08-21T12:56:16;9.88;;;1.63;;
51949;SDS011;37974;53.218;6.640;2022-08-21T12:58:46;13.15;;;1.70;;
51949;SDS011;37974;53.218;6.640;2022-08-21T13:01:17;10.10;;;1.75;;
51949;SDS011;37974;53.218;6.640;2022-08-21T13:03:51;14.25;;;1.83;;
51949;SDS011;37974;53.218;6.640;2022-08-21T13:06:20;6.60;;;1.25;;
51949;SDS011;37974;53.218;6.640;2022-08-21T13:08:50;12.32;;;2.08;;
51949;SDS011;37974;53.218;6.640;2022-08-21T13:11:31;13.20;;;2.00;;
51949;SDS011;37974;53.218;6.640;2022-08-21T13:14:01;5.07;;;1.20;;
51949;SDS011;37974;53.218;6.640;2022-08-21T13:16:31;6.57;;;1.63;;
51949;SDS011;37974;53.218;6.640;2022-08-21T13:18:59;9.70;;;1.48;;
51949;SDS011;37974;53.218;6.640;2022-08-21T13:21:41;6.75;;;1.63;;
51949;SDS011;37974;53.218;6.640;2022-08-21T13:24:19;8.38;;;1.50;;
51949;SDS011;37974;53.218;6.640;2022-08-21T13:26:55;8.65;;;1.55;;
51949;SDS011;37974;53.218;6.640;2022-08-21T13:29:26;6.75;;;1.00;;
51949;SDS011;37974;53.218;6.640;2022-08-21T13:31:55;7.05;;;1.20;;
51949;SDS011;37974;53.218;6.640;2022-08-21T13:34:23;7.65;;;1.25;;
51949;SDS011;37974;53.218;6.640;2022-08-21T13:37:04;7.65;;;1.60;;
51949;SDS011;37974;53.218;6.640;2022-08-21T13:39:47;5.20;;;1.30;;
51949;SDS011;37974;53.218;6.640;2022-08-21T13:42:20;5.35;;;1.10;;
51949;SDS011;37974;53.218;6.640;2022-08-21T13:44:51;9.10;;;1.70;;
51949;SDS011;37974;53.218;6.640;2022-08-21T13:47:18;8.77;;;1.33;;
51949;SDS011;37974;53.218;6.640;2022-08-21T13:49:45;7.30;;;1.50;;
51949;SDS011;37974;53.218;6.640;2022-08-21T13:52:14;5.68;;;1.40;;
51949;SDS011;37974;53.218;6.640;2022-08-21T13:54:51;6.30;;;1.25;;
51949;SDS011;37974;53.218;6.640;2022-08-21T13:57:25;7.90;;;1.42;;
51949;SDS011;37974;53.218;6.640;2022-08-21T14:02:44;7.32;;;1.00;;
51949;SDS011;37974;53.218;6.640;2022-08-21T14:05:14;11.43;;;1.75;;
51949;SDS011;37974;53.218;6.640;2022-08-21T14:07:44;6.13;;;1.23;;
51949;SDS011;37974;53.218;6.640;2022-08-21T14:10:21;10.27;;;1.38;;
51949;SDS011;37974;53.218;6.640;2022-08-21T14:12:49;11.63;;;1.75;;
51949;SDS011;37974;53.218;6.640;2022-08-21T14:15:18;4.93;;;1.33;;
51949;SDS011;37974;53.218;6.640;2022-08-21T14:17:48;7.88;;;1.58;;
51949;SDS011;37974;53.218;6.640;2022-08-21T14:20:28;6.80;;;1.13;;
51949;SDS011;37974;53.218;6.640;2022-08-21T14:23:00;5.78;;;1.10;;
51949;SDS011;37974;53.218;6.640;2022-08-21T14:25:40;7.03;;;1.15;;
51949;SDS011;37974;53.218;6.640;2022-08-21T14:28:12;6.20;;;1.20;;
51949;SDS011;37974;53.218;6.640;2022-08-21T14:30:57;9.55;;;1.50;;
51949;SDS011;37974;53.218;6.640;2022-08-21T14:33:35;9.18;;;1.40;;
51949;SDS011;37974;53.218;6.640;2022-08-21T14:36:01;8.18;;;1.42;;
51949;SDS011;37974;53.218;6.640;2022-08-21T14:38:27;6.72;;;1.40;;
51949;SDS011;37974;53.218;6.640;2022-08-21T14:40:56;11.13;;;1.70;;
51949;SDS011;37974;53.218;6.640;2022-08-21T14:43:26;7.85;;;1.60;;
51949;SDS011;37974;53.218;6.640;2022-08-21T14:46:04;9.57;;;1.50;;
51949;SDS011;37974;53.218;6.640;2022-08-21T14:48:30;8.30;;;1.83;;
51949;SDS011;37974;53.218;6.640;2022-08-21T14:50:55;11.35;;;1.70;;
51949;SDS011;37974;53.218;6.640;2022-08-21T14:53:21;7.88;;;1.50;;
51949;SDS011;37974;53.218;6.640;2022-08-21T14:55:47;10.32;;;1.92;;
51949;SDS011;37974;53.218;6.640;2022-08-21T14:58:34;6.97;;;1.50;;
51949;SDS011;37974;53.218;6.640;2022-08-21T15:01:17;5.90;;;1.45;;
51949;SDS011;37974;53.218;6.640;2022-08-21T15:03:52;10.38;;;1.58;;
51949;SDS011;37974;53.218;6.640;2022-08-21T15:06:17;9.80;;;1.55;;
51949;SDS011;37974;53.218;6.640;2022-08-21T15:08:45;9.88;;;1.52;;
51949;SDS011;37974;53.218;6.640;2022-08-21T15:11:17;12.52;;;1.67;;
51949;SDS011;37974;53.218;6.640;2022-08-21T15:13:45;14.10;;;1.75;;
51949;SDS011;37974;53.218;6.640;2022-08-21T15:16:11;8.80;;;2.05;;
51949;SDS011;37974;53.218;6.640;2022-08-21T15:18:41;7.43;;;1.63;;
51949;SDS011;37974;53.218;6.640;2022-08-21T15:21:07;10.10;;;2.20;;
51949;SDS011;37974;53.218;6.640;2022-08-21T15:23:33;12.85;;;1.75;;
51949;SDS011;37974;53.218;6.640;2022-08-21T15:25:59;11.02;;;1.65;;
51949;SDS011;37974;53.218;6.640;2022-08-21T15:28:25;14.68;;;1.80;;
51949;SDS011;37974;53.218;6.640;2022-08-21T15:30:52;9.90;;;1.50;;
51949;SDS011;37974;53.218;6.640;2022-08-21T15:33:18;9.68;;;1.75;;
51949;SDS011;37974;53.218;6.640;2022-08-21T15:35:44;9.93;;;2.13;;
51949;SDS011;37974;53.218;6.640;2022-08-21T15:38:11;11.30;;;1.60;;
51949;SDS011;37974;53.218;6.640;2022-08-21T15:40:38;8.48;;;1.40;;
51949;SDS011;37974;53.218;6.640;2022-08-21T15:43:06;10.10;;;2.03;;
51949;SDS011;37974;53.218;6.640;2022-08-21T15:45:34;7.97;;;2.08;;
51949;SDS011;37974;53.218;6.640;2022-08-21T15:48:05;13.55;;;1.88;;
51949;SDS011;37974;53.218;6.640;2022-08-21T15:50:31;13.10;;;1.83;;
51949;SDS011;37974;53.218;6.640;2022-08-21T15:52:57;7.50;;;1.60;;
51949;SDS011;37974;53.218;6.640;2022-08-21T15:55:23;9.93;;;2.10;;
51949;SDS011;37974;53.218;6.640;2022-08-21T15:58:06;13.45;;;2.10;;
51949;SDS011;37974;53.218;6.640;2022-08-21T16:00:37;9.98;;;1.48;;
51949;SDS011;37974;53.218;6.640;2022-08-21T16:03:05;13.55;;;1.98;;
51949;SDS011;37974;53.218;6.640;2022-08-21T16:05:47;9.85;;;2.13;;
51949;SDS011;37974;53.218;6.640;2022-08-21T16:08:20;8.55;;;1.77;;
51949;SDS011;37974;53.218;6.640;2022-08-21T16:10:46;12.90;;;1.95;;
51949;SDS011;37974;53.218;6.640;2022-08-21T16:13:18;10.68;;;1.98;;
51949;SDS011;37974;53.218;6.640;2022-08-21T16:15:49;10.27;;;1.50;;
51949;SDS011;37974;53.218;6.640;2022-08-21T16:18:15;12.40;;;1.77;;
51949;SDS011;37974;53.218;6.640;2022-08-21T16:20:46;9.52;;;1.85;;
51949;SDS011;37974;53.218;6.640;2022-08-21T16:23:12;9.93;;;1.85;;
51949;SDS011;37974;53.218;6.640;2022-08-21T16:25:38;10.80;;;2.08;;
51949;SDS011;37974;53.218;6.640;2022-08-21T16:28:05;9.45;;;1.77;;
51949;SDS011;37974;53.218;6.640;2022-08-21T16:30:39;15.82;;;2.05;;
51949;SDS011;37974;53.218;6.640;2022-08-21T16:33:07;11.00;;;1.85;;
51949;SDS011;37974;53.218;6.640;2022-08-21T16:35:43;12.18;;;1.77;;
51949;SDS011;37974;53.218;6.640;2022-08-21T16:38:09;9.82;;;1.88;;
51949;SDS011;37974;53.218;6.640;2022-08-21T16:40:34;10.00;;;2.00;;
51949;SDS011;37974;53.218;6.640;2022-08-21T16:43:00;9.82;;;1.70;;
51949;SDS011;37974;53.218;6.640;2022-08-21T16:45:29;8.95;;;1.55;;
51949;SDS011;37974;53.218;6.640;2022-08-21T16:47:55;13.25;;;1.77;;
51949;SDS011;37974;53.218;6.640;2022-08-21T16:50:22;6.82;;;1.38;;
51949;SDS011;37974;53.218;6.640;2022-08-21T16:52:54;8.63;;;1.63;;
51949;SDS011;37974;53.218;6.640;2022-08-21T16:55:20;9.10;;;1.70;;
51949;SDS011;37974;53.218;6.640;2022-08-21T16:57:45;8.80;;;2.22;;
51949;SDS011;37974;53.218;6.640;2022-08-21T17:00:12;9.52;;;1.60;;
51949;SDS011;37974;53.218;6.640;2022-08-21T17:02:39;7.82;;;1.50;;
51949;SDS011;37974;53.218;6.640;2022-08-21T17:05:17;8.10;;;1.33;;
51949;SDS011;37974;53.218;6.640;2022-08-21T17:07:44;10.15;;;1.73;;
51949;SDS011;37974;53.218;6.640;2022-08-21T17:10:11;11.13;;;2.10;;